createdAt,value
2017-06-08T00:02:13.902Z,78.90
2017-06-08T00:04:42.268Z,79.00
2017-06-08T00:07:10.566Z,79.30
2017-06-08T00:09:38.867Z,79.80
2017-06-08T00:12:07.131Z,80.20
2017-06-08T00:14:35.533Z,80.40
2017-06-08T00:17:03.947Z,80.70
2017-06-08T00:19:33.001Z,81.40
2017-06-08T00:22:02.064Z,81.30
2017-06-08T00:24:30.431Z,81.20
2017-06-08T00:26:58.810Z,81.30
2017-06-08T00:29:27.190Z,81.40
2017-06-08T00:31:55.466Z,81.30
2017-06-08T00:34:23.840Z,81.50
2017-06-08T00:36:52.132Z,81.70
2017-06-08T00:39:20.404Z,81.80
2017-06-08T00:41:48.752Z,82.20
2017-06-08T00:44:17.049Z,82.40
2017-06-08T00:46:45.430Z,82.40
2017-06-08T00:49:13.706Z,82.60
2017-06-08T00:51:41.990Z,82.70
2017-06-08T00:54:10.261Z,82.50
2017-06-08T00:56:38.536Z,82.60
2017-06-08T00:59:06.808Z,82.50
2017-06-08T01:01:35.070Z,82.40
2017-06-08T01:04:03.409Z,82.40
2017-06-08T01:06:31.672Z,82.20
2017-06-08T01:09:00.016Z,82.40
2017-06-08T01:11:29.095Z,82.00
2017-06-08T01:13:57.486Z,81.90
2017-06-08T01:16:25.850Z,81.90
2017-06-08T01:18:54.429Z,82.10
2017-06-08T01:21:22.831Z,82.20
2017-06-08T01:23:51.086Z,82.20
2017-06-08T01:26:19.473Z,82.00
2017-06-08T01:28:47.734Z,82.20
2017-06-08T01:31:16.024Z,82.10
2017-06-08T01:33:44.403Z,82.20
2017-06-08T01:36:12.684Z,82.30
2017-06-08T01:38:41.071Z,82.30
2017-06-08T01:41:09.347Z,82.40
2017-06-08T01:43:37.713Z,82.30
2017-06-08T01:46:06.118Z,82.20
2017-06-08T01:48:35.214Z,82.70
2017-06-08T01:51:03.576Z,82.70
2017-06-08T01:53:31.840Z,82.80
2017-06-08T01:56:00.127Z,82.90
2017-06-08T01:58:28.457Z,83.40
2017-06-08T02:00:56.736Z,83.30
2017-06-08T02:03:25.115Z,83.30
2017-06-08T02:05:53.398Z,83.30
2017-06-08T02:08:21.697Z,83.60
2017-06-08T02:10:49.970Z,83.70
2017-06-08T02:13:19.049Z,83.50
2017-06-08T02:15:47.348Z,83.80
2017-06-08T02:18:15.712Z,84.30
2017-06-08T02:20:43.984Z,84.40
2017-06-08T02:23:12.368Z,84.50
2017-06-08T02:25:40.645Z,84.70
2017-06-08T02:28:08.922Z,84.70
2017-06-08T02:30:37.302Z,84.70
2017-06-08T02:33:05.616Z,84.50
2017-06-08T02:35:34.797Z,84.80
2017-06-08T02:38:03.981Z,85.80
2017-06-08T02:40:32.259Z,84.90
2017-06-08T02:43:00.568Z,85.00
2017-06-08T02:45:28.856Z,85.10
2017-06-08T02:47:57.238Z,86.00
2017-06-08T02:50:25.492Z,84.90
2017-06-08T02:52:53.884Z,85.10
2017-06-08T02:55:22.185Z,85.00
2017-06-08T02:57:51.218Z,85.60
2017-06-08T03:00:19.526Z,84.70
2017-06-08T03:02:47.808Z,84.60
2017-06-08T03:05:16.187Z,84.30
2017-06-08T03:07:44.482Z,84.20
2017-06-08T03:10:12.844Z,84.10
2017-06-08T03:12:41.178Z,84.10
2017-06-08T03:15:09.502Z,83.80
2017-06-08T03:17:37.792Z,83.80
2017-06-08T03:20:06.057Z,83.50
2017-06-08T03:22:34.365Z,83.50
2017-06-08T03:25:02.678Z,83.60
2017-06-08T03:27:30.946Z,83.60
2017-06-08T03:29:59.322Z,83.60
2017-06-08T03:32:27.591Z,83.50
2017-06-08T03:34:55.977Z,83.40
2017-06-08T03:37:24.278Z,83.30
2017-06-08T03:39:52.632Z,83.50
2017-06-08T03:42:20.917Z,83.50
2017-06-08T03:44:49.184Z,83.70
2017-06-08T03:47:17.478Z,83.90
2017-06-08T03:49:46.669Z,84.50
2017-06-08T03:52:15.729Z,83.30
2017-06-08T03:54:43.994Z,83.30
2017-06-08T03:57:12.280Z,83.40
2017-06-08T03:59:40.568Z,83.30
2017-06-08T04:02:08.919Z,83.20
2017-06-08T04:04:37.214Z,83.70
2017-06-08T04:07:05.496Z,82.80
2017-06-08T04:09:33.774Z,82.60
2017-06-08T04:12:02.126Z,82.60
2017-06-08T04:14:30.390Z,82.60
2017-06-08T04:16:58.722Z,81.50
2017-06-08T04:19:27.099Z,81.20
2017-06-08T04:21:55.464Z,81.20
2017-06-08T04:24:23.741Z,80.20
2017-06-08T04:26:52.020Z,80.20
2017-06-08T04:29:20.392Z,79.60
2017-06-08T04:31:48.652Z,79.20
2017-06-08T04:34:16.916Z,79.10
2017-06-08T04:36:45.197Z,78.60
2017-06-08T04:39:13.461Z,77.80
2017-06-08T04:41:41.791Z,78.60
2017-06-08T04:44:10.065Z,77.90
2017-06-08T04:46:38.321Z,77.50
2017-06-08T04:49:06.605Z,77.90
2017-06-08T04:51:34.901Z,77.40
2017-06-08T04:54:03.265Z,77.10
2017-06-08T04:56:31.553Z,76.50
2017-06-08T04:58:59.922Z,75.70
2017-06-08T05:01:28.316Z,75.60
2017-06-08T05:03:56.585Z,76.30
2017-06-08T05:06:24.962Z,75.50
2017-06-08T05:08:53.216Z,75.40
2017-06-08T05:11:21.515Z,74.70
2017-06-08T05:13:49.897Z,74.80
2017-06-08T05:16:18.277Z,74.10
2017-06-08T05:18:46.655Z,74.10
2017-06-08T05:21:14.935Z,74.80
2017-06-08T05:23:43.413Z,74.40
2017-06-08T05:26:11.691Z,73.90
2017-06-08T05:28:40.068Z,73.30
2017-06-08T05:31:08.339Z,73.40
2017-06-08T05:33:36.597Z,72.80
2017-06-08T05:36:04.898Z,72.80
2017-06-08T05:38:33.175Z,72.50
2017-06-08T05:41:01.659Z,71.70
2017-06-08T05:43:29.909Z,71.70
2017-06-08T05:45:58.203Z,72.10
2017-06-08T05:48:26.481Z,71.30
2017-06-08T05:50:54.749Z,71.30
2017-06-08T05:53:23.063Z,70.70
2017-06-08T05:55:51.434Z,71.60
2017-06-08T05:58:19.736Z,70.50
2017-06-08T06:00:48.801Z,69.70
2017-06-08T06:03:17.201Z,69.70
2017-06-08T06:05:46.299Z,68.80
2017-06-08T06:08:15.364Z,69.30
2017-06-08T06:10:43.767Z,68.90
2017-06-08T06:13:12.800Z,69.60
2017-06-08T06:15:41.130Z,68.70
2017-06-08T06:18:09.418Z,68.10
2017-06-08T06:20:37.786Z,66.70
2017-06-08T06:23:06.172Z,66.40
2017-06-08T06:25:34.430Z,66.40
2017-06-08T06:28:02.715Z,66.40
2017-06-08T06:30:31.025Z,65.60
2017-06-08T06:32:59.298Z,64.60
2017-06-08T06:35:28.366Z,62.70
2017-06-08T06:37:56.645Z,62.60
2017-06-08T06:40:25.023Z,61.30
2017-06-08T06:42:53.328Z,61.70
2017-06-08T06:45:21.606Z,62.30
2017-06-08T06:47:49.971Z,60.70
2017-06-08T06:50:18.353Z,60.50
2017-06-08T06:52:47.168Z,59.60
2017-06-08T06:55:16.237Z,63.00
2017-06-08T06:57:44.504Z,62.20
2017-06-08T07:00:12.892Z,58.90
2017-06-08T07:02:41.152Z,58.80
2017-06-08T07:05:09.448Z,58.70
2017-06-08T07:07:37.854Z,59.70
2017-06-08T07:10:07.000Z,56.10
2017-06-08T07:12:35.297Z,55.50
2017-06-08T07:15:03.563Z,56.70
2017-06-08T07:17:31.872Z,55.90
2017-06-08T07:20:00.958Z,55.60
2017-06-08T07:22:29.958Z,55.50
2017-06-08T07:24:58.239Z,55.30
2017-06-08T07:27:28.040Z,54.00
2017-06-08T07:29:56.354Z,54.00
2017-06-08T07:32:24.708Z,54.80
2017-06-08T07:34:53.753Z,54.20
2017-06-08T07:37:22.032Z,54.20
2017-06-08T07:39:50.340Z,55.00
2017-06-08T07:42:18.628Z,54.20
2017-06-08T07:44:46.988Z,53.70
2017-06-08T07:47:15.270Z,54.20
2017-06-08T07:49:43.648Z,54.40
2017-06-08T07:52:11.925Z,54.70
2017-06-08T07:54:40.251Z,53.40
2017-06-08T07:57:08.519Z,53.60
2017-06-08T07:59:36.778Z,54.00
2017-06-08T08:02:17.728Z,53.10
2017-06-08T08:04:46.074Z,53.00
2017-06-08T08:07:14.347Z,52.00
2017-06-08T08:09:42.653Z,51.30
2017-06-08T08:12:11.033Z,51.00
2017-06-08T08:14:39.316Z,51.80
2017-06-08T08:17:07.708Z,51.50
2017-06-08T08:19:36.888Z,49.00
2017-06-08T08:22:05.185Z,49.20
2017-06-08T08:24:33.476Z,47.90
2017-06-08T08:27:01.756Z,44.90
2017-06-08T08:29:30.132Z,47.00
2017-06-08T08:31:58.396Z,45.70
2017-06-08T08:34:26.665Z,45.10
2017-06-08T08:36:55.070Z,44.90
2017-06-08T08:39:23.338Z,45.00
2017-06-08T08:41:51.648Z,46.00
2017-06-08T08:44:19.934Z,45.60
2017-06-08T08:46:48.280Z,46.70
2017-06-08T08:49:16.585Z,47.20
2017-06-08T08:51:44.854Z,48.20
2017-06-08T08:54:13.245Z,48.20
2017-06-08T08:56:41.529Z,47.70
2017-06-08T08:59:09.902Z,47.80
2017-06-08T09:01:38.382Z,46.80
2017-06-08T09:04:07.786Z,47.40
2017-06-08T09:06:36.061Z,47.30
2017-06-08T09:09:04.426Z,47.60
2017-06-08T09:11:32.824Z,47.90
2017-06-08T09:14:01.865Z,48.50
2017-06-08T09:16:30.142Z,48.50
2017-06-08T09:18:58.467Z,48.80
2017-06-08T09:21:26.729Z,48.80
2017-06-08T09:23:55.096Z,47.90
2017-06-08T09:26:23.400Z,47.10
2017-06-08T09:28:51.673Z,46.80
2017-06-08T09:31:19.964Z,46.10
2017-06-08T09:33:49.036Z,46.60
2017-06-08T09:36:17.441Z,46.60
2017-06-08T09:38:46.528Z,43.80
2017-06-08T09:41:14.809Z,43.80
2017-06-08T09:43:43.199Z,44.40
2017-06-08T09:46:11.471Z,44.30
2017-06-08T09:48:39.759Z,45.40
2017-06-08T09:51:08.034Z,45.10
2017-06-08T09:53:37.112Z,44.80
2017-06-08T09:56:05.377Z,44.70
2017-06-08T09:58:33.672Z,45.30
2017-06-08T10:01:02.745Z,45.50
2017-06-08T10:03:31.016Z,44.90
2017-06-08T10:05:59.321Z,45.90
2017-06-08T10:08:28.493Z,46.90
2017-06-08T10:10:56.743Z,46.90
2017-06-08T10:13:25.049Z,47.30
2017-06-08T10:15:53.422Z,48.10
2017-06-08T10:18:21.705Z,47.60
2017-06-08T10:20:49.979Z,47.30
2017-06-08T10:23:18.374Z,48.20
2017-06-08T10:25:46.736Z,50.30
2017-06-08T10:28:15.113Z,49.50
2017-06-08T10:30:43.373Z,49.00
2017-06-08T10:33:11.658Z,49.00
2017-06-08T10:35:40.361Z,49.60
2017-06-08T10:38:08.669Z,49.50
2017-06-08T10:40:37.016Z,45.90
2017-06-08T10:43:05.492Z,43.40
2017-06-08T10:45:33.786Z,43.80
2017-06-08T10:48:02.815Z,43.50
2017-06-08T10:50:31.141Z,43.30
2017-06-08T10:52:59.457Z,43.90
2017-06-08T10:55:27.737Z,44.40
2017-06-08T10:57:56.009Z,43.00
2017-06-08T11:00:24.340Z,43.60
2017-06-08T11:02:53.397Z,43.30
2017-06-08T11:05:21.696Z,43.30
2017-06-08T11:07:49.973Z,43.00
2017-06-08T11:10:18.229Z,43.50
2017-06-08T11:12:46.534Z,43.20
2017-06-08T11:15:14.845Z,43.60
2017-06-08T11:17:43.177Z,44.10
2017-06-08T11:20:11.441Z,44.70
2017-06-08T11:22:40.464Z,45.40
2017-06-08T11:25:08.748Z,45.30
2017-06-08T11:27:37.066Z,45.20
2017-06-08T11:30:05.494Z,46.00
2017-06-08T11:32:33.887Z,46.50
2017-06-08T11:35:02.237Z,47.20
2017-06-08T11:37:30.630Z,47.40
2017-06-08T11:39:58.908Z,47.90
2017-06-08T11:42:27.285Z,48.40
2017-06-08T11:44:55.572Z,49.10
2017-06-08T11:47:23.946Z,49.00
2017-06-08T11:49:52.216Z,49.70
2017-06-08T11:52:20.700Z,48.40
2017-06-08T11:54:48.974Z,48.50
2017-06-08T11:57:17.233Z,48.70
2017-06-08T11:59:45.561Z,48.80
2017-06-08T12:02:13.912Z,48.90
2017-06-08T12:04:42.279Z,49.10
2017-06-08T12:07:10.543Z,49.20
2017-06-08T12:09:38.936Z,50.40
2017-06-08T12:12:07.217Z,50.30
2017-06-08T12:14:35.578Z,49.70
2017-06-08T12:17:03.977Z,50.80
2017-06-08T12:19:32.293Z,51.30
2017-06-08T12:22:01.348Z,51.80
2017-06-08T12:24:29.721Z,51.70
2017-06-08T12:26:57.972Z,51.50
2017-06-08T12:29:26.279Z,51.70
2017-06-08T12:31:54.938Z,52.10
2017-06-08T12:34:23.318Z,52.50
2017-06-08T12:36:51.681Z,53.10
2017-06-08T12:39:20.074Z,53.80
2017-06-08T12:41:48.443Z,53.20
2017-06-08T12:44:16.703Z,53.50
2017-06-08T12:46:45.096Z,54.00
2017-06-08T12:49:13.377Z,54.30
2017-06-08T12:51:41.664Z,54.80
2017-06-08T12:54:10.027Z,54.20
2017-06-08T12:56:38.303Z,54.30
2017-06-08T12:59:06.787Z,54.60
2017-06-08T13:01:35.094Z,54.20
2017-06-08T13:04:03.444Z,54.50
2017-06-08T13:06:31.737Z,54.80
2017-06-08T13:09:00.916Z,54.80
2017-06-08T13:11:29.192Z,55.00
2017-06-08T13:13:57.489Z,55.30
2017-06-08T13:16:25.849Z,54.80
2017-06-08T13:18:54.117Z,54.50
2017-06-08T13:21:22.508Z,54.00
2017-06-08T13:23:50.781Z,54.10
2017-06-08T13:26:19.058Z,53.80
2017-06-08T13:28:47.336Z,54.20
2017-06-08T13:31:15.604Z,52.70
2017-06-08T13:33:43.971Z,51.40
2017-06-08T13:36:12.353Z,48.20
2017-06-08T13:38:40.620Z,47.20
2017-06-08T13:41:09.001Z,46.80
2017-06-08T13:43:37.260Z,46.00
2017-06-08T13:46:05.653Z,46.40
2017-06-08T13:48:33.934Z,46.10
2017-06-08T13:51:02.209Z,47.40
2017-06-08T13:53:30.487Z,47.90
2017-06-08T13:55:59.592Z,49.60
2017-06-08T13:58:27.887Z,50.00
2017-06-08T14:00:56.233Z,50.80
2017-06-08T14:03:24.619Z,51.40
2017-06-08T14:05:52.904Z,51.30
2017-06-08T14:08:21.290Z,51.60
2017-06-08T14:10:49.564Z,50.80
2017-06-08T14:13:17.833Z,51.70
2017-06-08T14:15:46.218Z,50.90
2017-06-08T14:18:14.488Z,49.90
2017-06-08T14:20:42.764Z,49.70
2017-06-08T14:23:11.154Z,49.00
2017-06-08T14:25:40.140Z,48.30
2017-06-08T14:28:09.191Z,45.80
2017-06-08T14:30:37.566Z,45.70
2017-06-08T14:33:06.272Z,44.80
2017-06-08T14:35:34.739Z,41.60
2017-06-08T14:38:03.016Z,35.50
2017-06-08T14:40:31.293Z,31.70
2017-06-08T14:42:59.580Z,29.80
2017-06-08T14:45:28.665Z,32.30
2017-06-08T14:47:57.044Z,32.90
2017-06-08T14:50:25.318Z,33.20
2017-06-08T14:52:53.651Z,33.80
2017-06-08T14:55:21.904Z,35.60
2017-06-08T14:57:51.791Z,38.20
2017-06-08T15:00:20.071Z,38.10
2017-06-08T15:02:48.329Z,38.70
2017-06-08T15:05:16.726Z,40.50
2017-06-08T15:07:45.020Z,41.30
2017-06-08T15:10:13.279Z,42.30
2017-06-08T15:12:41.677Z,43.40
2017-06-08T15:15:09.947Z,45.30
2017-06-08T15:17:38.310Z,45.40
2017-06-08T15:20:06.597Z,46.40
2017-06-08T15:22:34.910Z,46.80
2017-06-08T15:25:03.364Z,47.30
2017-06-08T15:27:31.731Z,47.60
2017-06-08T15:30:00.013Z,47.60
2017-06-08T15:32:28.275Z,46.70
2017-06-08T15:34:56.608Z,45.40
2017-06-08T15:37:24.884Z,45.00
2017-06-08T15:39:53.251Z,44.60
2017-06-08T15:42:21.637Z,45.10
2017-06-08T15:44:49.922Z,46.80
2017-06-08T15:47:18.201Z,46.30
2017-06-08T15:49:46.480Z,44.30
2017-06-08T15:52:14.741Z,45.00
2017-06-08T15:54:43.120Z,43.60
2017-06-08T15:57:11.376Z,42.90
2017-06-08T15:59:39.693Z,42.60
2017-06-08T16:02:08.053Z,43.60
2017-06-08T16:04:36.309Z,43.60
2017-06-08T16:07:04.580Z,44.40
2017-06-08T16:09:32.883Z,44.00
2017-06-08T16:12:01.262Z,44.70
2017-06-08T16:14:29.537Z,44.40
2017-06-08T16:16:57.808Z,43.20
2017-06-08T16:19:26.197Z,41.20
2017-06-08T16:21:54.484Z,40.20
2017-06-08T16:24:22.861Z,38.00
2017-06-08T16:26:51.130Z,37.60
2017-06-08T16:29:19.404Z,37.10
2017-06-08T16:31:47.789Z,37.90
2017-06-08T16:34:16.164Z,39.60
2017-06-08T16:36:44.541Z,40.30
2017-06-08T16:39:12.820Z,40.80
2017-06-08T16:41:41.081Z,41.90
2017-06-08T16:44:09.382Z,42.60
2017-06-08T16:46:37.647Z,42.40
2017-06-08T16:49:06.022Z,43.20
2017-06-08T16:51:34.305Z,43.40
2017-06-08T16:54:02.584Z,43.80
2017-06-08T16:56:30.961Z,44.00
2017-06-08T16:58:59.341Z,44.40
2017-06-08T17:01:27.715Z,44.90
2017-06-08T17:03:55.973Z,44.30
2017-06-08T17:06:24.224Z,43.60
2017-06-08T17:08:52.566Z,41.80
2017-06-08T17:11:21.867Z,39.60
2017-06-08T17:13:50.249Z,39.00
2017-06-08T17:16:18.496Z,39.90
2017-06-08T17:18:46.801Z,39.70
2017-06-08T17:21:15.157Z,41.30
2017-06-08T17:23:43.426Z,41.90
2017-06-08T17:26:11.756Z,43.00
2017-06-08T17:28:40.809Z,44.00
2017-06-08T17:31:09.085Z,43.90
2017-06-08T17:33:37.494Z,44.40
2017-06-08T17:36:05.848Z,45.60
2017-06-08T17:38:34.222Z,45.50
2017-06-08T17:41:02.507Z,46.10
2017-06-08T17:43:30.794Z,46.20
2017-06-08T17:45:59.174Z,46.50
2017-06-08T17:48:27.539Z,46.10
2017-06-08T17:50:55.934Z,47.10
2017-06-08T17:53:24.229Z,46.70
2017-06-08T17:55:53.429Z,47.00
2017-06-08T17:58:21.695Z,46.80
2017-06-08T18:00:50.034Z,46.60
2017-06-08T18:03:18.417Z,48.00
2017-06-08T18:05:46.690Z,47.90
2017-06-08T18:08:15.862Z,47.40
2017-06-08T18:10:45.015Z,49.00
2017-06-08T18:13:13.294Z,48.90
2017-06-08T18:15:41.588Z,49.40
2017-06-08T18:18:09.927Z,49.00
2017-06-08T18:20:38.242Z,49.90
2017-06-08T18:23:06.591Z,50.80
2017-06-08T18:25:34.969Z,49.80
2017-06-08T18:28:03.507Z,50.10
2017-06-08T18:30:32.613Z,51.00
2017-06-08T18:33:00.991Z,51.00
2017-06-08T18:35:29.367Z,51.30
2017-06-08T18:37:57.701Z,53.60
2017-06-08T18:40:26.026Z,53.40
2017-06-08T18:42:54.400Z,51.30
2017-06-08T18:45:22.714Z,51.70
2017-06-08T18:47:50.988Z,52.10
2017-06-08T18:50:19.331Z,51.90
2017-06-08T18:52:47.634Z,51.80
2017-06-08T18:55:16.692Z,52.60
2017-06-08T18:57:45.090Z,52.50
2017-06-08T19:00:13.552Z,53.00
2017-06-08T19:02:41.804Z,52.70
2017-06-08T19:05:10.089Z,53.50
2017-06-08T19:07:38.360Z,53.10
2017-06-08T19:10:06.865Z,53.80
2017-06-08T19:12:35.251Z,53.80
2017-06-08T19:15:03.628Z,53.50
2017-06-08T19:17:31.906Z,53.30
2017-06-08T19:20:00.283Z,54.00
2017-06-08T19:22:28.570Z,54.60
2017-06-08T19:24:56.850Z,54.00
2017-06-08T19:27:25.194Z,53.80
2017-06-08T19:29:53.476Z,54.50
2017-06-08T19:32:21.834Z,54.70
2017-06-08T19:34:50.145Z,54.70
2017-06-08T19:37:19.216Z,54.10
2017-06-08T19:39:47.492Z,54.10
2017-06-08T19:42:15.790Z,54.50
2017-06-08T19:44:44.121Z,54.20
2017-06-08T19:47:12.529Z,54.80
2017-06-08T19:49:40.792Z,54.90
2017-06-08T19:52:09.185Z,54.80
2017-06-08T19:54:37.573Z,54.60
2017-06-08T19:57:05.835Z,55.80
2017-06-08T19:59:34.989Z,55.30
2017-06-08T20:02:03.274Z,55.20
2017-06-08T20:04:31.544Z,55.30
2017-06-08T20:06:59.951Z,55.60
2017-06-08T20:09:28.370Z,55.50
2017-06-08T20:11:56.676Z,56.20
2017-06-08T20:14:25.744Z,57.20
2017-06-08T20:16:54.009Z,56.50
2017-06-08T20:19:23.181Z,56.20
2017-06-08T20:21:51.438Z,56.20
2017-06-08T20:24:19.766Z,56.50
2017-06-08T20:26:49.887Z,56.80
2017-06-08T20:29:18.185Z,57.30
2017-06-08T20:31:46.498Z,56.60
2017-06-08T20:34:14.758Z,56.90
2017-06-08T20:36:43.049Z,57.00
2017-06-08T20:39:11.320Z,56.70
2017-06-08T20:41:39.745Z,56.70
2017-06-08T20:44:08.137Z,57.00
2017-06-08T20:46:36.432Z,57.10
2017-06-08T20:49:04.773Z,57.40
2017-06-08T20:51:33.692Z,57.50
2017-06-08T20:54:02.073Z,57.20
2017-06-08T20:56:30.349Z,57.70
2017-06-08T20:58:58.728Z,58.30
2017-06-08T21:01:27.783Z,57.80
2017-06-08T21:03:56.948Z,57.70
2017-06-08T21:06:25.301Z,57.60
2017-06-08T21:08:53.682Z,57.80
2017-06-08T21:11:21.982Z,57.70
2017-06-08T21:13:50.366Z,57.80
2017-06-08T21:16:19.439Z,58.60
2017-06-08T21:18:47.757Z,58.60
2017-06-08T21:21:16.012Z,58.70
2017-06-08T21:23:45.107Z,59.40
2017-06-08T21:26:14.165Z,58.90
2017-06-08T21:28:42.441Z,58.90
2017-06-08T21:31:11.758Z,59.00
2017-06-08T21:33:40.135Z,59.30
2017-06-08T21:36:08.927Z,59.20
2017-06-08T21:38:37.319Z,59.30
2017-06-08T21:41:06.352Z,59.20
2017-06-08T21:43:34.683Z,59.40
2017-06-08T21:46:02.968Z,59.50
2017-06-08T21:48:31.226Z,59.30
2017-06-08T21:50:59.513Z,59.40
2017-06-08T21:53:27.776Z,59.60
2017-06-08T21:55:56.095Z,59.40
2017-06-08T21:58:24.355Z,59.40
2017-06-08T22:00:52.627Z,59.30
2017-06-08T22:03:21.012Z,59.40
2017-06-08T22:05:49.298Z,59.50
2017-06-08T22:08:17.645Z,59.60
2017-06-08T22:10:45.946Z,59.50
2017-06-08T22:13:14.262Z,59.60
2017-06-08T22:15:43.316Z,60.00
2017-06-08T22:18:11.593Z,60.00
2017-06-08T22:20:39.870Z,59.50
2017-06-08T22:23:08.136Z,59.40
2017-06-08T22:25:36.530Z,59.30
2017-06-08T22:28:04.798Z,59.90
2017-06-08T22:30:33.072Z,59.70
2017-06-08T22:33:01.364Z,60.00
2017-06-08T22:35:29.738Z,60.20
2017-06-08T22:37:58.145Z,60.20
2017-06-08T22:40:26.396Z,59.90
2017-06-08T22:42:54.774Z,60.30
2017-06-08T22:45:23.045Z,60.50
2017-06-08T22:47:51.321Z,61.20
2017-06-08T22:50:19.705Z,61.10
2017-06-08T22:52:47.978Z,61.60
2017-06-08T22:55:16.270Z,61.70
2017-06-08T22:57:44.516Z,61.80
2017-06-08T23:00:12.788Z,61.80
2017-06-08T23:02:41.077Z,62.00
2017-06-08T23:05:09.345Z,62.10
2017-06-08T23:07:37.644Z,62.20
2017-06-08T23:10:06.203Z,62.20
2017-06-08T23:12:34.484Z,63.30
2017-06-08T23:15:02.780Z,62.80
2017-06-08T23:17:31.062Z,62.70
2017-06-08T23:19:59.338Z,63.00
2017-06-08T23:22:28.366Z,63.50
2017-06-08T23:24:56.791Z,63.50
2017-06-08T23:27:25.146Z,63.70
2017-06-08T23:29:53.408Z,63.60
2017-06-08T23:32:21.808Z,64.00
2017-06-08T23:34:50.184Z,64.20
2017-06-08T23:37:18.461Z,64.50
2017-06-08T23:39:46.737Z,64.70
2017-06-08T23:42:15.116Z,64.90
2017-06-08T23:44:43.378Z,65.20
2017-06-08T23:47:11.644Z,65.20
2017-06-08T23:49:39.912Z,65.70
2017-06-08T23:52:08.190Z,66.10
2017-06-08T23:54:36.602Z,66.30
2017-06-08T23:57:05.631Z,66.60
2017-06-08T23:59:33.942Z,66.50
